Time;durP1;ratioP1;P1;durP2;ratioP2;P2;SDS_P1;SDS_P2;PMS_P1;PMS_P2;Temp;Humidity;BMP_temperature;BMP_pressure;BME280_temperature;BME280_humidity;BME280_pressure;Samples;Min_cycle;Max_cycle;Signal;HPM_P1;HPM_P2
2023/01/11 00:01:15;;;;;;;11.23;9.63;;;;;;;;;;5067379;28;20040;-72
2023/01/11 00:03:41;;;;;;;13.55;10.18;;;;;;;;;;5073427;28;20479;-73
2023/01/11 00:06:08;;;;;;;11.30;10.10;;;;;;;;;;5059256;28;20045;-72
2023/01/11 00:08:35;;;;;;;14.02;10.40;;;;;;;;;;5065058;28;20046;-73
2023/01/11 00:11:01;;;;;;;11.60;10.32;;;;;;;;;;5047746;28;20047;-72
2023/01/11 00:13:27;;;;;;;10.38;8.75;;;;;;;;;;5060745;28;20063;-72
2023/01/11 00:15:54;;;;;;;10.73;8.73;;;;;;;;;;5064416;28;20111;-72
2023/01/11 00:18:20;;;;;;;13.18;9.77;;;;;;;;;;5055471;28;20226;-72
2023/01/11 00:20:46;;;;;;;9.02;8.07;;;;;;;;;;5061934;28;20402;-73
2023/01/11 00:23:12;;;;;;;12.20;10.23;;;;;;;;;;5062487;28;20044;-72
2023/01/11 00:25:38;;;;;;;11.23;8.13;;;;;;;;;;5056775;28;20045;-73
2023/01/11 00:28:06;;;;;;;11.18;8.63;;;9.40;99.90;;;;;;5063967;28;20036;-72
2023/01/11 00:30:32;;;;;;;12.38;8.75;;;9.70;99.90;;;;;;5062374;28;20445;-73
2023/01/11 00:32:58;;;;;;;8.90;7.85;;;9.70;99.90;;;;;;5059659;28;20052;-72
2023/01/11 00:35:25;;;;;;;9.32;7.90;;;9.70;99.90;;;;;;5079037;28;20101;-73
2023/01/11 00:37:53;;;;;;;9.85;8.10;;;9.70;99.90;;;;;;5061890;28;20102;-73
2023/01/11 00:40:19;;;;;;;10.00;8.20;;;9.70;99.90;;;;;;5071700;28;20110;-73
2023/01/11 00:48:13;;;;;;;9.45;7.80;;;9.70;99.90;;;;;;5062492;28;20044;-72
2023/01/11 00:50:40;;;;;;;8.55;7.63;;;9.70;99.90;;;;;;5060054;28;20056;-73
2023/01/11 00:53:07;;;;;;;9.48;7.03;;;9.70;99.90;;;;;;5063732;28;20516;-72
2023/01/11 00:55:33;;;;;;;7.47;6.47;;;9.80;99.90;;;;;;5056946;28;20041;-72
2023/01/11 00:58:00;;;;;;;6.72;5.88;;;9.80;99.90;;;;;;5062818;28;20056;-72
2023/01/11 01:00:27;;;;;;;7.95;5.75;;;9.80;99.90;;;;;;5061688;28;20482;-73
2023/01/11 01:02:53;;;;;;;7.68;5.70;;;9.80;99.90;;;;;;5065121;28;20215;-72
2023/01/11 01:05:19;;;;;;;7.45;4.95;;;9.80;99.90;;;;;;5066432;28;20124;-73
2023/01/11 01:07:45;;;;;;;6.28;5.25;;;9.80;99.90;;;;;;5065509;28;20119;-72
2023/01/11 01:10:13;;;;;;;7.47;5.57;;;9.80;99.90;;;;;;5060357;28;20036;-72
2023/01/11 01:15:24;;;;;;;6.97;5.05;;;9.90;99.90;;;;;;5064623;28;20044;-72
2023/01/11 01:17:53;;;;;;;7.72;5.55;;;9.90;99.90;;;;;;5065040;28;20548;-72
2023/01/11 01:20:20;;;;;;;5.55;4.60;;;10.00;99.90;;;;;;5068433;28;20047;-72
2023/01/11 01:22:45;;;;;;;6.30;4.60;;;10.00;99.90;;;;;;5063802;28;20491;-72
2023/01/11 01:25:12;;;;;;;7.07;5.00;;;;;;;;;;5067345;28;20105;-71
2023/01/11 01:27:38;;;;;;;6.60;4.55;;;;;;;;;;5064964;28;20137;-73
2023/01/11 01:30:05;;;;;;;7.70;4.55;;;;;;;;;;5065745;28;20067;-73
2023/01/11 01:32:30;;;;;;;5.75;4.70;;;10.00;99.90;;;;;;5058641;28;20033;-72
2023/01/11 01:34:56;;;;;;;6.00;4.57;;;;;;;;;;5067727;28;20036;-73
2023/01/11 01:37:23;;;;;;;5.75;4.30;;;;;;;;;;5060016;28;20555;-73
2023/01/11 01:39:49;;;;;;;5.00;4.30;;;;;;;;;;5060473;28;20055;-72
2023/01/11 01:42:17;;;;;;;5.28;3.97;;;;;;;;;;5057698;28;20098;-73
2023/01/11 01:44:55;;;;;;;6.60;4.63;;;;;;;;;;5059385;28;20112;-72
2023/01/11 01:47:25;;;;;;;7.00;4.82;;;;;;;;;;5061716;28;20083;-73
2023/01/11 01:49:51;;;;;;;8.23;5.45;;;;;;;;;;5068063;28;20037;-72
2023/01/11 01:52:18;;;;;;;7.85;5.53;;;;;;;;;;5054765;28;20475;-73
2023/01/11 01:54:45;;;;;;;12.25;5.80;;;;;;;;;;5064101;28;20074;-72
2023/01/11 01:57:18;;;;;;;8.43;5.07;;;;;;;;;;5064225;28;20056;-72
2023/01/11 01:59:44;;;;;;;7.05;5.03;;;;;;;;;;5075247;28;20043;-72
2023/01/11 02:02:11;;;;;;;8.45;5.55;;;;;;;;;;5051656;28;20148;-72
2023/01/11 02:04:42;;;;;;;6.65;5.00;;;;;;;;;;5068115;28;20040;-72
2023/01/11 02:07:10;;;;;;;5.40;4.22;;;;;;;;;;5067173;28;20036;-72
2023/01/11 02:09:56;;;;;;;7.72;4.68;;;;;;;;;;5058284;28;20037;-73
2023/01/11 02:12:24;;;;;;;5.35;3.95;;;;;;;;;;5064442;28;20033;-71
2023/01/11 02:14:51;;;;;;;5.25;4.25;;;;;;;;;;5069497;28;20490;-72
2023/01/11 02:17:17;;;;;;;4.38;3.75;;;;;;;;;;5065413;28;20045;-72
2023/01/11 02:20:10;;;;;;;5.53;4.35;;;;;;;;;;5063028;28;20036;-72
2023/01/11 02:22:48;;;;;;;4.57;3.78;;;;;;;;;;5064388;28;20041;-71
2023/01/11 02:25:23;;;;;;;7.10;4.22;;;;;;;;;;5064667;28;20052;-72
2023/01/11 02:27:58;;;;;;;5.63;4.72;;;;;;;;;;5057933;28;20040;-71
2023/01/11 02:30:31;;;;;;;9.10;5.07;;;;;;;;;;5056826;28;20702;-72
2023/01/11 02:33:11;;;;;;;9.18;6.00;;;;;;;;;;5062450;28;20131;-72
2023/01/11 02:35:37;;;;;;;9.38;5.90;;;;;;;;;;5066810;28;20080;-73
2023/01/11 02:38:09;;;;;;;6.78;5.90;;;;;;;;;;5070096;28;20516;-72
2023/01/11 02:41:01;;;;;;;8.48;6.13;;;;;;;;;;5063656;28;20033;-72
2023/01/11 02:46:34;;;;;;;8.68;6.18;;;;;;;;;;5048078;28;20443;-73
2023/01/11 02:49:03;;;;;;;9.85;6.43;;;;;;;;;;5063045;28;20036;-72
2023/01/11 02:51:53;;;;;;;8.20;6.25;;;;;;;;;;5047340;28;20126;-72
2023/01/11 02:54:21;;;;;;;9.27;5.53;;;;;;;;;;5060656;28;20051;-72
2023/01/11 02:56:48;;;;;;;9.73;6.93;;;;;;;;;;5058805;28;20170;-72
2023/01/11 02:59:17;;;;;;;12.10;6.75;;;;;;;;;;5072618;28;20136;-72
2023/01/11 03:01:47;;;;;;;11.82;7.95;;;;;;;;;;5060830;28;20049;-72
2023/01/11 03:04:22;;;;;;;11.07;8.57;;;;;;;;;;5054808;28;20040;-72
2023/01/11 03:06:48;;;;;;;11.75;7.25;;;;;;;;;;5063111;28;20037;-72
2023/01/11 03:09:26;;;;;;;12.32;7.18;;;;;;;;;;5058745;28;20063;-72
2023/01/11 03:14:51;;;;;;;13.95;6.72;;;;;;;;;;5059801;28;20469;-72
2023/01/11 03:17:20;;;;;;;13.40;6.38;;;;;;;;;;5064212;28;20044;-72
2023/01/11 03:19:50;;;;;;;19.70;6.35;;;;;;;;;;5064888;28;20036;-71
2023/01/11 03:22:16;;;;;;;13.88;5.63;;;;;;;;;;5064475;28;20052;-72
2023/01/11 03:24:48;;;;;;;12.00;5.53;;;;;;;;;;5059554;28;20049;-72
2023/01/11 03:27:18;;;;;;;14.55;5.30;;;;;;;;;;5077026;28;20040;-71
2023/01/11 03:29:47;;;;;;;17.42;5.25;;;;;;;;;;5064026;28;20063;-71
2023/01/11 03:32:29;;;;;;;17.75;7.00;;;;;;;;;;5080694;28;20040;-73
2023/01/11 03:35:03;;;;;;;10.57;4.97;;;;;;;;;;5078113;28;20075;-72
2023/01/11 03:37:35;;;;;;;15.27;5.78;;;;;;;;;;5057105;28;20056;-72
2023/01/11 03:40:28;;;;;;;21.98;7.22;;;;;;;;;;5065844;28;20047;-71
2023/01/11 03:43:12;;;;;;;14.70;5.73;;;;;;;;;;5056074;28;20037;-71
2023/01/11 03:45:53;;;;;;;13.57;6.07;;;;;;;;;;5070657;28;20055;-72
2023/01/11 03:48:30;;;;;;;18.27;6.28;;;10.10;99.90;;;;;;5060695;28;20135;-71
2023/01/11 03:50:57;;;;;;;17.35;5.55;;;10.40;99.90;;;;;;5065224;28;20115;-72
2023/01/11 03:53:25;;;;;;;15.82;6.35;;;10.40;99.90;;;;;;5064902;28;20041;-72
2023/01/11 03:55:55;;;;;;;14.57;5.53;;;10.40;99.90;;;;;;5063343;28;20036;-72
2023/01/11 03:58:22;;;;;;;16.58;3.83;;;10.40;99.90;;;;;;5063735;28;20260;-71
2023/01/11 04:00:49;;;;;;;18.92;4.93;;;10.40;99.90;;;;;;5064258;28;20048;-72
2023/01/11 04:03:15;;;;;;;11.27;4.03;;;10.40;99.90;;;;;;5059649;28;20115;-72
2023/01/11 04:05:43;;;;;;;15.88;4.35;;;10.30;99.90;;;;;;5058506;28;20535;-72
2023/01/11 04:08:10;;;;;;;8.73;4.05;;;10.30;99.90;;;;;;5060474;28;20080;-73
2023/01/11 04:10:36;;;;;;;15.13;5.68;;;10.30;99.90;;;;;;5064385;28;20036;-72
2023/01/11 04:13:03;;;;;;;13.18;4.68;;;10.20;99.90;;;;;;5057291;28;20135;-72
2023/01/11 04:15:30;;;;;;;14.65;5.45;;;10.20;99.90;;;;;;5060782;28;20119;-72
2023/01/11 04:18:03;;;;;;;17.00;5.40;;;10.20;99.90;;;;;;5060218;28;20028;-72
2023/01/11 04:20:32;;;;;;;;;;;10.20;99.90;;;;;;5059961;28;20064;-72
2023/01/11 04:22:58;;;;;;;21.13;8.07;;;10.20;99.90;;;;;;5067690;28;19920;-72
2023/01/11 04:25:24;;;;;;;22.63;6.68;;;10.10;99.90;;;;;;5060558;28;20029;-71
2023/01/11 04:27:50;;;;;;;21.23;6.78;;;10.20;99.90;;;;;;5060356;28;20055;-72
2023/01/11 04:30:16;;;;;;;21.50;7.68;;;10.20;99.90;;;;;;5061199;28;20040;-72
2023/01/11 04:32:41;;;;;;;20.38;6.45;;;10.20;99.90;;;;;;5056615;28;20039;-72
2023/01/11 04:35:07;;;;;;;23.30;6.45;;;10.20;99.90;;;;;;5061993;28;20453;-72
2023/01/11 04:37:33;;;;;;;20.50;6.72;;;10.20;99.90;;;;;;5065356;28;20041;-72
2023/01/11 04:39:59;;;;;;;13.80;4.97;;;10.10;99.90;;;;;;5059055;28;20502;-72
2023/01/11 04:42:25;;;;;;;15.90;5.10;;;10.10;99.90;;;;;;5065533;28;20032;-72
2023/01/11 04:44:51;;;;;;;19.48;4.63;;;10.10;99.90;;;;;;5064257;28;20044;-72
2023/01/11 04:47:19;;;;;;;19.38;5.75;;;10.10;99.90;;;;;;5078141;28;20040;-72
2023/01/11 04:49:45;;;;;;;9.38;4.32;;;10.10;99.90;;;;;;5065567;28;20036;-72
2023/01/11 04:52:13;;;;;;;18.33;5.35;;;10.10;99.90;;;;;;5059359;28;20549;-72
2023/01/11 04:54:39;;;;;;;13.18;4.50;;;10.00;99.90;;;;;;5065606;28;20142;-72
2023/01/11 04:57:06;;;;;;;20.10;5.13;;;10.00;99.90;;;;;;5063412;28;20040;-71
2023/01/11 04:59:32;;;;;;;20.85;6.50;;;10.10;99.90;;;;;;5075349;28;20052;-72
2023/01/11 05:01:57;;;;;;;17.23;4.93;;;10.10;99.90;;;;;;5063760;28;20527;-72
2023/01/11 05:04:23;;;;;;;20.75;6.65;;;10.10;99.90;;;;;;5065522;28;20043;-72
2023/01/11 05:06:49;;;;;;;26.33;8.63;;;10.00;99.90;;;;;;5069935;28;20107;-72
2023/01/11 05:09:16;;;;;;;24.77;8.93;;;10.00;99.90;;;;;;5064952;28;20189;-72
2023/01/11 05:11:43;;;;;;;25.95;8.43;;;10.00;99.90;;;;;;5062834;28;20409;-72
2023/01/11 05:14:08;;;;;;;19.48;8.23;;;10.00;99.90;;;;;;5067957;28;20067;-72
2023/01/11 05:16:34;;;;;;;21.80;6.60;;;10.00;99.90;;;;;;5065760;28;20683;-72
2023/01/11 05:19:02;;;;;;;35.05;8.57;;;9.90;99.90;;;;;;5059885;28;20505;-72
2023/01/11 05:21:30;;;;;;;22.13;7.03;;;10.00;99.90;;;;;;5060627;28;20091;-72
2023/01/11 05:23:58;;;;;;;21.40;8.13;;;9.90;99.90;;;;;;5068045;28;20032;-72
2023/01/11 05:26:27;;;;;;;23.38;8.55;;;9.90;99.90;;;;;;5067845;28;20170;-71
2023/01/11 05:28:55;;;;;;;24.73;6.20;;;9.90;99.90;;;;;;5059426;28;20415;-72
2023/01/11 05:31:21;;;;;;;21.67;9.10;;;9.90;99.90;;;;;;5064070;28;20048;-72
2023/01/11 05:33:47;;;;;;;23.13;5.75;;;9.90;99.90;;;;;;5067662;28;20048;-72
2023/01/11 05:36:15;;;;;;;24.48;6.43;;;9.80;99.90;;;;;;5060961;28;20037;-72
2023/01/11 05:38:41;;;;;;;19.55;5.63;;;9.80;99.90;;;;;;5078749;28;20097;-72
2023/01/11 05:41:09;;;;;;;18.73;6.53;;;9.70;99.90;;;;;;5064054;28;20037;-72
2023/01/11 05:46:25;;;;;;;15.85;5.38;;;9.70;99.90;;;;;;5039571;28;20048;-72
2023/01/11 05:48:54;;;;;;;18.73;6.20;;;9.60;99.90;;;;;;5051657;28;20040;-72
2023/01/11 05:51:19;;;;;;;19.58;6.30;;;9.60;99.90;;;;;;5055973;28;20041;-72
2023/01/11 05:53:45;;;;;;;17.15;6.78;;;9.50;99.90;;;;;;5055256;28;20168;-73
2023/01/11 05:56:11;;;;;;;23.48;8.98;;;9.50;99.90;;;;;;5053586;28;20102;-71
2023/01/11 05:58:37;;;;;;;21.20;6.57;;;9.50;99.90;;;;;;5056326;28;20057;-73
2023/01/11 06:01:03;;;;;;;20.25;7.03;;;9.50;99.90;;;;;;5059479;28;20110;-73
2023/01/11 06:03:28;;;;;;;20.52;7.03;;;9.50;99.90;;;;;;5053783;28;20541;-72
2023/01/11 06:05:54;;;;;;;26.25;6.18;;;9.50;99.90;;;;;;5058289;28;20109;-72
2023/01/11 06:08:20;;;;;;;26.67;6.53;;;9.50;99.90;;;;;;5057341;28;20048;-72
2023/01/11 06:10:50;;;;;;;20.48;5.72;;;9.50;99.90;;;;;;5057178;28;20041;-72
2023/01/11 06:13:28;;;;;;;27.73;7.85;;;9.50;99.90;;;;;;5053968;28;20037;-71
2023/01/11 06:16:04;;;;;;;23.33;5.97;;;9.50;99.90;;;;;;5062076;28;20041;-72
2023/01/11 06:18:32;;;;;;;18.23;5.22;;;9.40;99.90;;;;;;5064780;28;20037;-72
2023/01/11 06:20:59;;;;;;;16.42;5.35;;;9.40;99.90;;;;;;5066202;28;20165;-72
2023/01/11 06:23:27;;;;;;;17.88;5.50;;;9.50;99.90;;;;;;5060275;28;20035;-72
2023/01/11 06:25:52;;;;;;;22.17;5.13;;;9.40;99.90;;;;;;5062294;28;20028;-72
2023/01/11 06:28:18;;;;;;;14.25;3.97;;;9.40;99.90;;;;;;5065619;28;20036;-72
2023/01/11 06:30:53;;;;;;;14.63;4.25;;;9.50;99.90;;;;;;5068366;28;20043;-72
2023/01/11 06:33:20;;;;;;;12.38;3.65;;;9.50;99.90;;;;;;5058887;28;20025;-72
2023/01/11 06:35:46;;;;;;;10.75;3.30;;;9.50;99.90;;;;;;5063347;28;20033;-72
2023/01/11 06:38:14;;;;;;;12.45;3.42;;;9.50;99.90;;;;;;5061679;28;20425;-72
2023/01/11 06:40:41;;;;;;;11.82;4.25;;;9.40;99.90;;;;;;5061617;28;20154;-73
2023/01/11 06:43:08;;;;;;;15.32;4.07;;;9.50;99.90;;;;;;5058339;28;20048;-72
2023/01/11 06:45:33;;;;;;;13.63;3.22;;;9.40;99.90;;;;;;5063627;28;20037;-72
2023/01/11 06:47:59;;;;;;;22.00;4.25;;;9.50;99.90;;;;;;5065296;28;20075;-72
2023/01/11 06:50:26;;;;;;;13.35;3.80;;;9.40;99.90;;;;;;5059388;28;20064;-72
2023/01/11 06:52:53;;;;;;;14.73;3.85;;;9.40;99.90;;;;;;5055345;28;20048;-72
2023/01/11 06:55:19;;;;;;;17.23;4.00;;;9.40;99.90;;;;;;5054693;28;20379;-72
2023/01/11 06:57:45;;;;;;;21.92;5.93;;;9.40;99.90;;;;;;5062708;28;20082;-72
2023/01/11 07:00:11;;;;;;;13.60;4.20;;;9.40;99.90;;;;;;5055621;28;20522;-72
2023/01/11 07:02:37;;;;;;;18.33;4.70;;;9.30;99.90;;;;;;5056629;28;20119;-72
2023/01/11 07:05:03;;;;;;;17.90;4.10;;;9.30;99.90;;;;;;5058727;28;20586;-72
2023/01/11 07:07:29;;;;;;;12.27;4.53;;;9.30;99.90;;;;;;5062186;28;20194;-72
2023/01/11 07:09:55;;;;;;;18.25;4.35;;;9.20;99.90;;;;;;5055660;28;20115;-72
2023/01/11 07:12:20;;;;;;;12.20;3.80;;;9.30;99.90;;;;;;5062748;28;20039;-72
2023/01/11 07:14:46;;;;;;;17.77;4.55;;;9.20;99.90;;;;;;5065248;28;20048;-72
2023/01/11 07:17:12;;;;;;;11.23;4.10;;;9.20;99.90;;;;;;5063096;28;20094;-72
2023/01/11 07:19:38;;;;;;;10.90;4.18;;;9.20;99.90;;;;;;5061892;28;20119;-72
2023/01/11 07:22:03;;;;;;;10.70;3.47;;;9.10;99.90;;;;;;5061358;28;20040;-73
2023/01/11 07:24:29;;;;;;;15.50;3.25;;;9.20;99.90;;;;;;5064102;28;20036;-72
2023/01/11 07:26:58;;;;;;;15.55;4.13;;;9.10;99.90;;;;;;5047697;28;20116;-72
2023/01/11 07:29:24;;;;;;;11.75;4.28;;;9.10;99.90;;;;;;5060733;28;20166;-72
2023/01/11 07:31:50;;;;;;;10.45;4.53;;;9.10;99.90;;;;;;5061722;28;20036;-72
2023/01/11 07:34:15;;;;;;;10.38;3.15;;;9.10;99.90;;;;;;5064487;28;20045;-72
2023/01/11 07:36:41;;;;;;;13.10;3.40;;;9.10;99.90;;;;;;5062277;28;20378;-72
2023/01/11 07:39:07;;;;;;;14.52;4.22;;;9.10;99.90;;;;;;5057377;28;20410;-72
2023/01/11 07:44:17;;;;;;;8.20;3.20;;;9.10;99.90;;;;;;5054269;28;20040;-72
2023/01/11 07:46:43;;;;;;;13.57;4.22;;;9.00;99.90;;;;;;5061308;28;20033;-73
2023/01/11 07:49:10;;;;;;;7.55;2.67;;;9.00;99.90;;;;;;5061260;28;20060;-73
2023/01/11 07:51:35;;;;;;;13.48;2.80;;;9.00;99.90;;;;;;5066400;28;20072;-72
2023/01/11 07:54:02;;;;;;;11.13;4.05;;;9.00;99.90;;;;;;5064201;28;20492;-72
2023/01/11 07:56:29;;;;;;;11.57;3.65;;;8.90;99.90;;;;;;5052764;28;20406;-72
2023/01/11 07:58:55;;;;;;;8.98;3.75;;;9.00;99.90;;;;;;5062204;28;20057;-73
2023/01/11 08:01:22;;;;;;;12.85;3.25;;;9.00;99.90;;;;;;5064827;28;20294;-73
2023/01/11 08:03:49;;;;;;;10.35;3.22;;;8.90;99.90;;;;;;5058278;28;20047;-73
2023/01/11 08:06:14;;;;;;;11.90;3.47;;;8.90;99.90;;;;;;5057596;28;20041;-72
2023/01/11 08:08:41;;;;;;;13.38;3.60;;;8.90;99.90;;;;;;5071480;28;20040;-72
2023/01/11 08:16:36;;;;;;;10.77;3.65;;;8.80;99.90;;;;;;5055055;28;20396;-73
2023/01/11 08:19:02;;;;;;;12.05;3.63;;;8.80;99.90;;;;;;5063677;28;20102;-72
2023/01/11 08:21:28;;;;;;;11.55;3.78;;;8.80;99.90;;;;;;5068296;28;20120;-72
2023/01/11 08:23:55;;;;;;;9.98;4.05;;;8.80;99.90;;;;;;5071302;28;20151;-73
2023/01/11 08:26:25;;;;;;;13.80;4.45;;;8.80;99.90;;;;;;5057354;28;20039;-72
2023/01/11 08:28:51;;;;;;;12.27;3.65;;;8.80;99.90;;;;;;5057147;28;20082;-72
2023/01/11 08:31:17;;;;;;;15.18;4.28;;;8.80;99.90;;;;;;5062727;28;20484;-72
2023/01/11 08:33:43;;;;;;;10.20;3.17;;;8.70;99.90;;;;;;5060092;28;20040;-73
2023/01/11 08:36:11;;;;;;;11.50;3.47;;;8.70;99.90;;;;;;5059802;28;20055;-73
2023/01/11 08:38:37;;;;;;;9.40;3.40;;;8.70;99.90;;;;;;5061929;28;20040;-73
2023/01/11 08:41:09;;;;;;;12.15;3.50;;;8.70;99.90;;;;;;5057132;28;20449;-72
2023/01/11 08:43:39;;;;;;;17.27;3.90;;;8.70;99.90;;;;;;5059444;28;20501;-72
2023/01/11 08:46:09;;;;;;;16.73;4.25;;;8.60;99.90;;;;;;5046186;28;20156;-72
2023/01/11 08:48:35;;;;;;;12.35;4.07;;;8.60;99.90;;;;;;5056898;28;20112;-72
2023/01/11 08:51:01;;;;;;;8.50;3.42;;;8.60;99.90;;;;;;5056148;28;20090;-73
2023/01/11 08:53:27;;;;;;;11.30;3.05;;;8.60;99.90;;;;;;5059927;28;20055;-73
2023/01/11 08:55:53;;;;;;;11.20;3.78;;;8.50;99.90;;;;;;5058805;28;20041;-72
2023/01/11 08:58:19;;;;;;;18.20;3.95;;;8.50;99.90;;;;;;5060672;28;20052;-72
2023/01/11 09:00:46;;;;;;;13.18;3.80;;;8.50;99.90;;;;;;5056369;28;20102;-72
2023/01/11 09:03:12;;;;;;;12.57;4.05;;;8.50;99.90;;;;;;5056238;28;20115;-73
2023/01/11 09:05:39;;;;;;;10.32;3.08;;;8.50;99.90;;;;;;5056326;28;20036;-73
2023/01/11 09:08:06;;;;;;;15.07;4.57;;;8.50;99.90;;;;;;5054195;28;20518;-73
2023/01/11 09:10:32;;;;;;;12.48;3.97;;;8.50;99.90;;;;;;5052497;28;20036;-72
2023/01/11 09:12:58;;;;;;;7.28;2.78;;;8.40;99.90;;;;;;5055505;28;20550;-72
2023/01/11 09:15:25;;;;;;;10.90;3.60;;;8.40;99.90;;;;;;5051888;28;20036;-72
2023/01/11 09:17:51;;;;;;;11.98;3.55;;;8.40;99.90;;;;;;5055674;28;20426;-72
2023/01/11 09:20:21;;;;;;;15.18;2.90;;;8.40;99.90;;;;;;5066310;28;20507;-72
2023/01/11 09:22:51;;;;;;;12.15;4.47;;;8.40;99.90;;;;;;5056347;28;20449;-72
2023/01/11 09:25:18;;;;;;;9.00;3.53;;;8.40;99.90;;;;;;5054749;28;20040;-72
2023/01/11 09:27:49;;;;;;;7.88;2.95;;;8.40;99.90;;;;;;5057416;28;20094;-73
2023/01/11 09:30:18;;;;;;;10.27;3.78;;;8.40;99.90;;;;;;5065622;28;20041;-72
2023/01/11 09:32:48;;;;;;;11.90;3.08;;;8.50;99.90;;;;;;5056933;28;20539;-73
2023/01/11 09:35:15;;;;;;;8.80;3.63;;;8.50;99.90;;;;;;5060922;28;20090;-72
2023/01/11 09:37:47;;;;;;;10.15;3.65;;;8.50;99.90;;;;;;5058695;28;20066;-71
2023/01/11 09:40:45;;;;;;;11.07;3.22;;;8.60;99.90;;;;;;5055361;28;20119;-72
2023/01/11 09:43:13;;;;;;;11.55;3.33;;;8.60;99.90;;;;;;5081192;28;20040;-72
2023/01/11 09:45:45;;;;;;;6.57;2.92;;;8.70;99.90;;;;;;5064539;28;20068;-72
2023/01/11 09:48:57;;;;;;;12.95;3.58;;;8.70;99.90;;;;;;5061601;28;20032;-72
2023/01/11 09:51:30;;;;;;;14.75;3.33;;;8.80;99.90;;;;;;5069696;28;20254;-72
2023/01/11 09:53:57;;;;;;;9.25;3.45;;;8.80;99.90;;;;;;5060287;28;20049;-72
2023/01/11 09:56:30;;;;;;;13.88;3.45;;;9.00;99.90;;;;;;5060709;28;20037;-72
2023/01/11 09:59:06;;;;;;;8.82;2.92;;;9.00;99.90;;;;;;5046561;28;20547;-72
2023/01/11 10:01:37;;;;;;;17.77;3.78;;;9.00;99.90;;;;;;5062277;28;20516;-73
2023/01/11 10:04:25;;;;;;;15.63;3.40;;;9.10;99.90;;;;;;5063829;28;20033;-72
2023/01/11 10:07:27;;;;;;;10.82;3.10;;;9.10;99.90;;;;;;5057024;28;20076;-72
2023/01/11 10:10:20;;;;;;;10.93;3.65;;;9.20;99.90;;;;;;5059045;28;20060;-72
2023/01/11 10:12:58;;;;;;;10.88;3.97;;;9.30;99.90;;;;;;5062509;28;20454;-72
2023/01/11 10:16:13;;;;;;;9.95;2.97;;;9.30;99.90;;;;;;5064397;28;20076;-72
2023/01/11 10:19:04;;;;;;;9.77;2.60;;;9.30;99.90;;;;;;5060718;28;20388;-72
2023/01/11 10:22:07;;;;;;;13.38;3.13;;;9.40;99.90;;;;;;5061796;28;20166;-72
2023/01/11 10:24:37;;;;;;;17.00;3.03;;;9.40;99.90;;;;;;5062122;28;20063;-72
2023/01/11 10:27:13;;;;;;;15.45;3.85;;;9.50;99.90;;;;;;5063251;28;20041;-73
2023/01/11 10:41:28;;;;;;;14.95;4.03;;;9.80;99.90;;;;;;5055372;28;20063;-73
2023/01/11 10:44:08;;;;;;;10.80;3.85;;;9.80;99.90;;;;;;5055713;28;20036;-72
2023/01/11 10:46:43;;;;;;;8.02;3.72;;;9.80;99.90;;;;;;5053899;28;20087;-73
2023/01/11 10:49:30;;;;;;;12.50;3.45;;;9.90;99.90;;;;;;5057512;28;20479;-73
2023/01/11 10:52:02;;;;;;;11.32;3.92;;;9.90;99.90;;;;;;5069175;28;20456;-73
2023/01/11 10:54:32;;;;;;;10.43;3.00;;;10.00;99.90;;;;;;5055255;28;20040;-72
2023/01/11 10:57:16;;;;;;;9.88;2.95;;;10.00;99.90;;;;;;5068981;28;20194;-72
2023/01/11 10:59:54;;;;;;;10.32;3.53;;;10.00;99.90;;;;;;5057815;28;20463;-72
2023/01/11 11:02:38;;;;;;;11.23;4.25;;;10.10;99.90;;;;;;5055477;28;20051;-73
2023/01/11 11:05:28;;;;;;;13.63;4.60;;;10.20;99.90;;;;;;5056136;28;20569;-72
2023/01/11 11:08:08;;;;;;;16.77;4.40;;;10.20;99.90;;;;;;5057112;28;20062;-72
2023/01/11 11:10:43;;;;;;;9.55;3.88;;;10.30;99.90;;;;;;5054971;28;20072;-72
2023/01/11 11:13:12;;;;;;;13.43;4.03;;;10.30;99.90;;;;;;5054537;28;20086;-73
2023/01/11 11:15:56;;;;;;;17.38;4.07;;;10.40;99.90;;;;;;5054951;28;20079;-72
2023/01/11 11:18:23;;;;;;;13.07;4.60;;;10.50;99.90;;;;;;5053736;28;20445;-73
2023/01/11 11:20:49;;;;;;;20.27;4.70;;;10.50;99.90;;;;;;5059292;28;20121;-73
2023/01/11 11:23:18;;;;;;;12.82;4.18;;;10.70;99.90;;;;;;5051557;28;20233;-73
2023/01/11 11:26:10;;;;;;;14.75;4.05;;;10.70;99.90;;;;;;5054393;28;20479;-73
2023/01/11 11:28:36;;;;;;;15.30;4.75;;;;;;;;;;5054652;28;20045;-73
2023/01/11 11:31:04;;;;;;;11.77;3.85;;;;;;;;;;5067435;28;20037;-73
2023/01/11 11:33:35;;;;;;;14.80;4.47;;;;;;;;;;5071763;28;20122;-73
2023/01/11 11:36:07;;;;;;;12.15;4.63;;;10.80;99.90;;;;;;5056838;28;20041;-73
2023/01/11 11:39:01;;;;;;;16.77;5.67;;;;;;;;;;5057466;28;20033;-73
2023/01/11 11:41:27;;;;;;;16.85;5.47;;;;;;;;;;5053510;28;20043;-73
2023/01/11 11:44:13;;;;;;;15.18;4.22;;;11.10;99.90;;;;;;5054311;28;20037;-73
2023/01/11 11:46:39;;;;;;;16.58;4.15;;;;;;;;;;5054365;28;20467;-73
2023/01/11 11:49:16;;;;;;;14.13;4.68;;;;;;;;;;5054782;28;20124;-73
2023/01/11 11:51:44;;;;;;;12.82;4.22;;;11.70;99.90;;;;;;5054329;28;20093;-73
2023/01/11 11:54:30;;;;;;;11.23;4.25;;;;;;;;;;5055505;28;20041;-73
2023/01/11 11:56:58;;;;;;;16.67;3.85;;;;;;;;;;5054015;28;20596;-73
2023/01/11 11:59:25;;;;;;;9.18;3.85;;;;;;;;;;5050680;28;20049;-73
2023/01/11 12:02:02;;;;;;;12.70;3.85;;;;;;;;;;5055323;28;20043;-73
2023/01/11 12:04:37;;;;;;;14.50;4.75;;;;;;;;;;5050427;28;20495;-73
2023/01/11 12:07:06;;;;;;;16.52;4.25;;;;;;;;;;5055778;28;20048;-73
2023/01/11 12:09:33;;;;;;;20.75;4.93;;;;;;;;;;5052909;28;20253;-73
2023/01/11 12:12:00;;;;;;;13.00;4.90;;;;;;;;;;5053051;28;20045;-73
2023/01/11 12:14:34;;;;;;;12.00;5.05;;;;;;;;;;5064441;28;20037;-73
2023/01/11 12:17:15;;;;;;;15.65;4.43;;;;;;;;;;5052301;28;20044;-73
2023/01/11 12:19:44;;;;;;;11.00;4.70;;;13.00;99.90;;;;;;5065026;28;20037;-73
2023/01/11 12:22:21;;;;;;;13.68;4.88;;;11.20;99.90;;;;;;5035210;28;20037;-73
2023/01/11 12:24:48;;;;;;;22.50;7.28;;;;;;;;;;5052834;28;20041;-73
2023/01/11 12:27:17;;;;;;;11.45;5.05;;;;;;;;;;5053739;28;20434;-73
2023/01/11 12:29:52;;;;;;;16.25;5.03;;;;;;;;;;5053188;28;20037;-73
2023/01/11 12:32:54;;;;;;;13.82;4.45;;;;;;;;;;5054928;28;20444;-73
2023/01/11 12:35:20;;;;;;;15.52;5.53;;;;;;;;;;5035232;28;20160;-73
2023/01/11 12:38:01;;;;;;;11.25;4.78;;;;;;;;;;5046518;28;20433;-73
2023/01/11 12:40:30;;;;;;;19.67;4.97;;;;;;;;;;5050565;28;20041;-73
2023/01/11 12:42:59;;;;;;;14.68;4.22;;;;;;;;;;5052308;28;20474;-73
2023/01/11 12:45:25;;;;;;;13.50;4.10;;;;;;;;;;5054785;28;20029;-73
2023/01/11 12:47:58;;;;;;;14.43;5.05;;;;;;;;;;5052251;28;20044;-73
2023/01/11 12:50:24;;;;;;;19.10;5.63;;;;;;;;;;5059941;28;20037;-73
2023/01/11 12:52:56;;;;;;;10.57;4.70;;;;;;;;;;5052658;28;20563;-73
2023/01/11 12:55:25;;;;;;;21.85;5.57;;;;;;;;;;5054658;28;20516;-73
2023/01/11 12:58:24;;;;;;;19.02;5.05;;;10.90;99.90;;;;;;5069704;28;20053;-73
2023/01/11 13:01:11;;;;;;;14.15;5.90;;;;;;;;;;5059743;28;20037;-73
2023/01/11 13:03:55;;;;;;;16.38;6.25;;;10.60;99.90;;;;;;5076755;28;20461;-73
2023/01/11 13:06:24;;;;;;;19.83;6.00;;;10.50;99.90;;;;;;5069399;28;20552;-73
2023/01/11 13:08:55;;;;;;;16.20;7.03;;;10.50;99.90;;;;;;5062635;28;20225;-73
2023/01/11 13:11:36;;;;;;;20.48;5.88;;;10.30;99.90;;;;;;5063966;28;20490;-73
2023/01/11 13:14:20;;;;;;;17.02;5.18;;;10.30;99.90;;;;;;5065437;28;20051;-73
2023/01/11 13:16:55;;;;;;;20.23;5.78;;;;;;;;;;5061900;28;20096;-73
2023/01/11 13:19:26;;;;;;;17.10;5.70;;;;;;;;;;5056069;28;20037;-73
2023/01/11 13:21:53;;;;;;;13.73;4.72;;;;;;;;;;5053375;28;20037;-72
2023/01/11 13:24:25;;;;;;;21.42;6.13;;;;;;;;;;5055362;28;20440;-72
2023/01/11 13:26:53;;;;;;;19.60;5.90;;;;;;;;;;5054101;28;20102;-73
2023/01/11 13:29:25;;;;;;;15.38;5.13;;;;;;;;;;5070946;28;20526;-73
2023/01/11 13:31:53;;;;;;;20.98;5.60;;;;;;;;;;5074559;28;20037;-73
2023/01/11 13:34:23;;;;;;;21.67;6.05;;;;;;;;;;5061017;28;20521;-73
2023/01/11 13:36:53;;;;;;;20.83;6.38;;;;;;;;;;5055617;28;20590;-73
2023/01/11 13:39:45;;;;;;;26.02;5.45;;;;;;;;;;5052924;28;20516;-73
2023/01/11 13:42:22;;;;;;;22.85;5.88;;;;;;;;;;5058646;28;20048;-73
2023/01/11 13:45:01;;;;;;;18.02;5.18;;;;;;;;;;5062652;28;20032;-73
2023/01/11 13:47:31;;;;;;;22.98;4.28;;;;;;;;;;5071395;28;20074;-73
2023/01/11 13:50:03;;;;;;;26.13;6.32;;;;;;;;;;5072748;28;20090;-73
2023/01/11 13:52:45;;;;;;;13.48;4.55;;;;;;;;;;5051407;28;20463;-73
2023/01/11 13:55:12;;;;;;;19.20;5.73;;;;;;;;;;5058876;28;20044;-73
2023/01/11 13:57:43;;;;;;;17.58;6.20;;;;;;;;;;5061182;28;20561;-73
2023/01/11 14:00:16;;;;;;;16.30;6.50;;;;;;;;;;5065704;28;20065;-73
2023/01/11 14:02:47;;;;;;;23.30;5.85;;;10.20;99.90;;;;;;5059491;28;20047;-73
2023/01/11 14:05:18;;;;;;;14.68;5.22;;;10.60;99.90;;;;;;5059814;28;20060;-73
2023/01/11 14:08:00;;;;;;;19.80;5.97;;;10.50;99.90;;;;;;5053057;28;20529;-73
2023/01/11 14:11:20;;;;;;;18.48;5.93;;;10.30;99.90;;;;;;5054311;28;20032;-73
2023/01/11 14:14:17;;;;;;;16.60;4.90;;;10.30;99.90;;;;;;4996651;28;20491;-72
2023/01/11 14:17:24;;;;;;;16.98;5.38;;;10.20;99.90;;;;;;4978047;28;20354;-73